createdAt,value
2024-04-30T00:00:54.248Z,84.49
2024-04-30T00:03:41.440Z,84.63
2024-04-30T00:06:11.087Z,84.74
2024-04-30T00:08:39.507Z,84.86
2024-04-30T00:11:08.192Z,84.76
2024-04-30T00:13:36.755Z,84.80
2024-04-30T00:16:06.195Z,85.09
2024-04-30T00:18:34.722Z,84.94
2024-04-30T00:21:03.420Z,84.58
2024-04-30T00:23:32.133Z,84.44
2024-04-30T00:26:00.750Z,84.77
2024-04-30T00:28:29.480Z,84.98
2024-04-30T00:30:58.226Z,85.08
2024-04-30T00:33:27.043Z,85.47
2024-04-30T00:35:55.364Z,85.52
2024-04-30T00:38:23.731Z,85.68
2024-04-30T00:40:52.341Z,85.73
2024-04-30T00:43:21.572Z,85.83
2024-04-30T00:45:50.044Z,86.08
2024-04-30T00:48:19.935Z,86.16
2024-04-30T00:50:49.590Z,86.19
2024-04-30T00:53:18.621Z,86.64
2024-04-30T00:55:47.101Z,86.94
2024-04-30T00:58:16.110Z,87.02
2024-04-30T01:00:44.738Z,86.93
2024-04-30T01:03:13.771Z,86.51
2024-04-30T01:05:42.451Z,86.76
2024-04-30T01:08:10.894Z,86.99
2024-04-30T01:10:39.934Z,87.04
2024-04-30T01:13:10.710Z,87.41
2024-04-30T01:15:39.216Z,87.31
2024-04-30T01:18:08.052Z,87.46
2024-04-30T01:20:36.688Z,87.61
2024-04-30T01:23:05.530Z,87.76
2024-04-30T01:25:34.211Z,88.14
2024-04-30T01:28:03.019Z,88.21
2024-04-30T01:30:31.657Z,88.39
2024-04-30T01:33:01.902Z,88.19
2024-04-30T01:35:30.773Z,88.27
2024-04-30T01:37:59.396Z,88.77
2024-04-30T01:40:27.904Z,88.79
2024-04-30T01:42:56.432Z,89.25
2024-04-30T01:45:25.129Z,89.46
2024-04-30T01:47:53.814Z,89.90
2024-04-30T01:50:22.386Z,90.45
2024-04-30T01:52:50.892Z,90.35
2024-04-30T01:55:19.493Z,90.22
2024-04-30T01:57:49.622Z,89.96
2024-04-30T02:00:18.447Z,89.97
2024-04-30T02:02:47.115Z,90.24
2024-04-30T02:05:21.140Z,90.64
2024-04-30T02:07:53.850Z,91.17
2024-04-30T02:10:22.439Z,91.39
2024-04-30T02:12:50.943Z,91.52
2024-04-30T02:15:19.270Z,91.95
2024-04-30T02:17:47.910Z,91.84
2024-04-30T02:20:16.594Z,91.61
2024-04-30T02:22:45.300Z,92.22
2024-04-30T02:25:14.364Z,92.97
2024-04-30T02:27:42.867Z,93.39
2024-04-30T02:30:27.484Z,93.65
2024-04-30T02:33:22.827Z,93.75
2024-04-30T02:35:51.276Z,93.20
2024-04-30T02:38:19.733Z,92.85
2024-04-30T02:40:48.463Z,92.90
2024-04-30T02:43:16.908Z,92.86
2024-04-30T02:45:45.599Z,92.88
2024-04-30T02:48:15.141Z,93.16
2024-04-30T02:50:43.874Z,92.86
2024-04-30T02:53:12.442Z,92.62
2024-04-30T02:55:41.327Z,92.92
2024-04-30T02:58:10.046Z,93.20
2024-04-30T03:00:38.588Z,93.87
2024-04-30T03:03:07.073Z,94.06
2024-04-30T03:05:35.603Z,94.61
2024-04-30T03:08:05.091Z,94.70
2024-04-30T03:10:34.357Z,94.40
2024-04-30T03:13:03.306Z,94.82
2024-04-30T03:15:31.891Z,94.38
2024-04-30T03:18:02.349Z,94.94
2024-04-30T03:20:31.137Z,95.21
2024-04-30T03:22:59.796Z,95.20
2024-04-30T03:25:28.305Z,95.20
2024-04-30T03:27:59.802Z,95.05
2024-04-30T03:30:29.196Z,95.29
2024-04-30T03:32:59.245Z,95.56
2024-04-30T03:35:28.328Z,95.50
2024-04-30T03:37:57.164Z,95.14
2024-04-30T03:40:26.026Z,95.61
2024-04-30T03:42:54.739Z,95.65
2024-04-30T03:45:23.413Z,95.88
2024-04-30T03:47:52.094Z,96.01
2024-04-30T03:50:20.616Z,95.94
2024-04-30T03:52:49.206Z,96.28
2024-04-30T03:55:17.919Z,96.76
2024-04-30T03:57:46.661Z,97.38
2024-04-30T04:00:15.495Z,97.86
2024-04-30T04:02:44.074Z,98.01
2024-04-30T04:05:13.024Z,98.82
2024-04-30T04:07:41.495Z,98.80
2024-04-30T04:10:10.066Z,98.55
2024-04-30T04:12:57.211Z,98.40
2024-04-30T04:15:25.615Z,98.43
2024-04-30T04:17:54.163Z,98.42
2024-04-30T04:20:22.693Z,98.84
2024-04-30T04:22:51.236Z,99.48
2024-04-30T04:25:19.924Z,99.27
2024-04-30T04:27:48.482Z,99.53
2024-04-30T04:30:17.348Z,99.52
2024-04-30T04:32:46.076Z,100.00
2024-04-30T04:35:15.387Z,100.00
2024-04-30T04:37:45.114Z,99.95
2024-04-30T04:40:14.117Z,99.92
2024-04-30T04:42:42.822Z,99.84
2024-04-30T04:45:11.366Z,99.72
2024-04-30T04:47:39.887Z,99.38
2024-04-30T04:50:09.251Z,99.49
2024-04-30T04:52:39.592Z,99.48
2024-04-30T04:55:08.396Z,99.30
2024-04-30T04:57:36.987Z,99.36
2024-04-30T05:00:07.535Z,99.29
2024-04-30T05:02:36.038Z,99.09
2024-04-30T05:05:05.478Z,99.23
2024-04-30T05:07:34.262Z,98.70
2024-04-30T05:10:03.057Z,98.42
2024-04-30T05:12:31.675Z,98.15
2024-04-30T05:15:00.069Z,97.48
2024-04-30T05:17:28.628Z,97.02
2024-04-30T05:19:57.120Z,96.27
2024-04-30T05:22:25.630Z,95.42
2024-04-30T05:24:54.270Z,94.67
2024-04-30T05:27:22.843Z,94.26
2024-04-30T05:29:54.102Z,94.08
2024-04-30T05:32:28.779Z,93.76
2024-04-30T05:34:59.379Z,93.35
2024-04-30T05:37:28.129Z,92.35
2024-04-30T05:39:56.525Z,91.62
2024-04-30T05:42:25.061Z,90.64
2024-04-30T05:44:53.700Z,89.94
2024-04-30T05:47:22.233Z,88.38
2024-04-30T05:49:50.966Z,87.20
2024-04-30T05:52:19.532Z,85.69
2024-04-30T05:54:48.208Z,85.05
2024-04-30T05:57:16.909Z,84.27
2024-04-30T05:59:45.410Z,83.46
2024-04-30T06:02:14.186Z,82.85
2024-04-30T06:04:43.050Z,82.34
2024-04-30T06:07:11.755Z,81.23
2024-04-30T06:09:40.456Z,80.73
2024-04-30T06:12:09.684Z,78.64
2024-04-30T06:14:38.392Z,75.72
2024-04-30T06:17:07.263Z,75.88
2024-04-30T06:19:36.177Z,75.28
2024-04-30T06:22:05.256Z,73.51
2024-04-30T06:24:33.938Z,72.47
2024-04-30T06:27:02.443Z,71.76
2024-04-30T06:29:30.919Z,71.76
2024-04-30T06:31:59.266Z,71.37
2024-04-30T06:34:27.874Z,70.07
2024-04-30T06:36:56.674Z,68.45
2024-04-30T06:39:25.365Z,68.13
2024-04-30T06:41:53.825Z,66.55
2024-04-30T06:44:22.486Z,67.06
2024-04-30T06:46:50.973Z,67.01
2024-04-30T06:49:19.585Z,66.51
2024-04-30T06:51:48.461Z,66.65
2024-04-30T06:54:18.731Z,65.75
2024-04-30T06:56:47.591Z,65.29
2024-04-30T06:59:16.240Z,64.24
2024-04-30T07:01:44.803Z,63.95
2024-04-30T07:04:13.423Z,63.84
2024-04-30T07:06:42.113Z,62.65
2024-04-30T07:09:10.591Z,61.77
2024-04-30T07:11:39.064Z,62.14
2024-04-30T07:14:07.779Z,61.89
2024-04-30T07:16:46.165Z,60.70
2024-04-30T07:19:20.903Z,59.60
2024-04-30T07:21:49.414Z,59.99
2024-04-30T07:24:18.142Z,59.69
2024-04-30T07:26:46.930Z,59.37
2024-04-30T07:29:15.598Z,58.91
2024-04-30T07:31:44.343Z,58.85
2024-04-30T07:34:13.265Z,57.56
2024-04-30T07:36:41.940Z,57.25
2024-04-30T07:39:10.344Z,56.64
2024-04-30T07:41:38.945Z,55.56
2024-04-30T07:44:07.672Z,55.43
2024-04-30T07:46:36.318Z,55.54
2024-04-30T07:49:05.355Z,55.23
2024-04-30T07:51:36.325Z,54.29
2024-04-30T07:54:04.981Z,53.95
2024-04-30T07:56:33.479Z,53.69
2024-04-30T07:59:02.052Z,53.48
2024-04-30T08:01:30.708Z,53.23
2024-04-30T08:03:59.300Z,51.20
2024-04-30T08:06:27.737Z,50.71
2024-04-30T08:08:56.105Z,49.62
2024-04-30T08:11:24.934Z,50.37
2024-04-30T08:13:53.289Z,50.64
2024-04-30T08:16:21.984Z,50.09
2024-04-30T08:18:51.153Z,50.09
2024-04-30T08:21:19.831Z,49.05
2024-04-30T08:23:48.440Z,49.26
2024-04-30T08:26:17.308Z,49.78
2024-04-30T08:28:45.896Z,48.82
2024-04-30T08:31:15.094Z,48.74
2024-04-30T08:33:43.738Z,47.83
2024-04-30T08:36:12.271Z,48.39
2024-04-30T08:38:40.904Z,47.83
2024-04-30T08:41:09.658Z,47.75
2024-04-30T08:43:39.663Z,47.16
2024-04-30T08:46:08.566Z,45.77
2024-04-30T08:48:40.783Z,45.83
2024-04-30T08:51:10.448Z,45.20
2024-04-30T08:53:39.206Z,44.08
2024-04-30T08:56:11.686Z,44.57
2024-04-30T08:58:40.996Z,44.34
2024-04-30T09:01:10.584Z,43.75
2024-04-30T09:03:42.881Z,43.06
2024-04-30T09:06:12.345Z,42.10
2024-04-30T09:08:41.057Z,41.42
2024-04-30T09:11:09.623Z,41.78
2024-04-30T09:13:41.464Z,41.63
2024-04-30T09:16:10.239Z,42.09
2024-04-30T09:18:39.288Z,41.34
2024-04-30T09:21:16.592Z,40.77
2024-04-30T09:23:46.082Z,41.18
2024-04-30T09:26:14.544Z,41.58
2024-04-30T09:28:53.171Z,39.87
2024-04-30T09:31:21.785Z,39.97
2024-04-30T09:33:54.800Z,39.90
2024-04-30T09:36:23.304Z,39.75
2024-04-30T09:38:54.569Z,39.82
2024-04-30T09:41:26.592Z,39.58
2024-04-30T09:43:55.875Z,39.60
2024-04-30T09:46:25.002Z,39.73
2024-04-30T09:48:54.663Z,39.55
2024-04-30T09:51:25.346Z,39.27
2024-04-30T09:53:54.390Z,39.23
2024-04-30T09:56:23.256Z,39.44
2024-04-30T09:58:52.191Z,39.14
2024-04-30T10:01:22.791Z,39.28
2024-04-30T10:03:53.860Z,38.22
2024-04-30T10:06:23.619Z,38.29
2024-04-30T10:08:52.586Z,38.08
2024-04-30T10:11:23.759Z,38.35
2024-04-30T10:13:53.750Z,38.85
2024-04-30T10:16:23.015Z,39.18
2024-04-30T10:19:02.937Z,38.88
2024-04-30T10:21:35.309Z,37.15
2024-04-30T10:24:17.358Z,37.81
2024-04-30T10:26:46.695Z,37.63
2024-04-30T10:29:15.901Z,38.43
2024-04-30T10:31:46.279Z,38.29
2024-04-30T10:34:14.785Z,38.09
2024-04-30T10:36:48.060Z,38.43
2024-04-30T10:39:26.197Z,38.21
2024-04-30T10:41:55.008Z,38.05
2024-04-30T10:44:23.802Z,37.76
2024-04-30T10:46:55.867Z,36.04
2024-04-30T10:49:24.465Z,35.96
2024-04-30T10:51:53.056Z,36.52
2024-04-30T10:54:21.784Z,36.85
2024-04-30T10:56:50.182Z,37.51
2024-04-30T10:59:27.094Z,36.98
2024-04-30T11:01:59.437Z,37.10
2024-04-30T11:04:31.512Z,36.44
2024-04-30T11:07:00.278Z,36.48
2024-04-30T11:09:29.065Z,36.72
2024-04-30T11:12:01.433Z,36.52
2024-04-30T11:14:30.702Z,37.16
2024-04-30T11:17:01.231Z,36.86
2024-04-30T11:19:29.884Z,36.70
2024-04-30T11:21:58.567Z,36.88
2024-04-30T11:24:27.692Z,36.72
2024-04-30T11:26:56.350Z,36.75
2024-04-30T11:29:34.934Z,36.19
2024-04-30T11:32:08.904Z,35.93
2024-04-30T11:34:37.737Z,35.70
2024-04-30T11:37:06.552Z,35.14
2024-04-30T11:39:35.359Z,35.28
2024-04-30T11:42:14.990Z,34.60
2024-04-30T11:44:49.916Z,33.91
2024-04-30T11:47:18.526Z,34.66
2024-04-30T11:49:47.214Z,34.63
2024-04-30T11:52:17.916Z,34.05
2024-04-30T11:54:46.642Z,33.59
2024-04-30T11:57:16.021Z,33.80
2024-04-30T11:59:44.914Z,33.64
2024-04-30T12:02:13.652Z,34.43
2024-04-30T12:04:42.342Z,34.37
2024-04-30T12:07:10.991Z,34.26
2024-04-30T12:09:41.333Z,33.64
2024-04-30T12:12:10.136Z,33.86
2024-04-30T12:14:40.105Z,33.17
2024-04-30T12:17:08.815Z,34.10
2024-04-30T12:19:38.159Z,33.92
2024-04-30T12:22:06.725Z,33.35
2024-04-30T12:24:35.406Z,32.95
2024-04-30T12:27:04.600Z,32.18
2024-04-30T12:29:33.218Z,32.44
2024-04-30T12:32:01.697Z,32.40
2024-04-30T12:34:30.741Z,32.21
2024-04-30T12:36:59.770Z,32.13
2024-04-30T12:39:28.915Z,32.73
2024-04-30T12:41:57.353Z,32.09
2024-04-30T12:44:26.064Z,31.75
2024-04-30T12:46:54.773Z,32.65
2024-04-30T12:49:23.491Z,32.37
2024-04-30T12:51:52.342Z,32.37
2024-04-30T12:54:21.118Z,32.49
2024-04-30T12:56:49.886Z,31.87
2024-04-30T12:59:18.688Z,31.31
2024-04-30T13:01:47.575Z,30.71
2024-04-30T13:04:16.286Z,31.23
2024-04-30T13:06:46.122Z,31.18
2024-04-30T13:09:14.757Z,30.34
2024-04-30T13:11:43.365Z,30.14
2024-04-30T13:14:12.902Z,29.62
2024-04-30T13:16:41.793Z,29.72
2024-04-30T13:19:10.495Z,29.81
2024-04-30T13:21:39.349Z,29.54
2024-04-30T13:24:11.851Z,29.56
2024-04-30T13:26:40.471Z,29.27
2024-04-30T13:29:09.018Z,29.08
2024-04-30T13:31:42.790Z,29.27
2024-04-30T13:34:11.426Z,29.84
2024-04-30T13:36:42.232Z,29.13
2024-04-30T13:39:11.443Z,29.07
2024-04-30T13:41:39.966Z,28.77
2024-04-30T13:44:08.596Z,28.96
2024-04-30T13:46:37.258Z,29.23
2024-04-30T13:49:06.053Z,29.56
2024-04-30T13:51:34.414Z,29.20
2024-04-30T13:54:05.733Z,29.18
2024-04-30T13:56:34.566Z,29.29
2024-04-30T13:59:05.597Z,29.13
2024-04-30T14:01:36.124Z,29.17
2024-04-30T14:04:15.050Z,28.77
2024-04-30T14:06:44.009Z,28.98
2024-04-30T14:09:12.387Z,29.10
2024-04-30T14:11:40.911Z,29.57
2024-04-30T14:14:09.372Z,29.67
2024-04-30T14:16:43.110Z,29.29
2024-04-30T14:19:11.733Z,29.08
2024-04-30T14:21:40.250Z,29.56
2024-04-30T14:24:08.962Z,29.91
2024-04-30T14:26:37.466Z,29.44
2024-04-30T14:29:09.493Z,28.96
2024-04-30T14:31:38.074Z,29.31
2024-04-30T14:34:07.011Z,29.18
2024-04-30T14:36:36.789Z,29.42
2024-04-30T14:39:10.699Z,28.92
2024-04-30T14:41:39.734Z,29.28
2024-04-30T14:44:08.640Z,28.24
2024-04-30T14:46:37.509Z,28.31
2024-04-30T14:49:06.540Z,29.05
2024-04-30T14:51:35.628Z,28.69
2024-04-30T14:54:04.838Z,28.75
2024-04-30T14:56:34.123Z,29.13
2024-04-30T14:59:02.743Z,29.03
2024-04-30T15:01:31.235Z,28.89
2024-04-30T15:04:00.642Z,29.20
2024-04-30T15:06:29.456Z,29.02
2024-04-30T15:08:58.230Z,29.17
2024-04-30T15:11:27.202Z,29.10
2024-04-30T15:13:57.755Z,29.62
2024-04-30T15:16:26.167Z,29.65
2024-04-30T15:18:54.747Z,29.90
2024-04-30T15:21:23.457Z,29.98
2024-04-30T15:23:52.148Z,29.43
2024-04-30T15:26:20.594Z,29.28
2024-04-30T15:28:49.088Z,29.25
2024-04-30T15:31:18.020Z,29.29
2024-04-30T15:33:46.879Z,29.93
2024-04-30T15:36:15.438Z,30.44
2024-04-30T15:38:45.740Z,30.12
2024-04-30T15:41:21.020Z,30.90
2024-04-30T15:43:49.625Z,31.14
2024-04-30T15:46:18.426Z,30.52
2024-04-30T15:48:49.646Z,30.82
2024-04-30T15:51:18.265Z,31.03
2024-04-30T15:53:46.895Z,30.62
2024-04-30T15:56:17.638Z,31.04
2024-04-30T15:58:48.303Z,30.66
2024-04-30T16:01:17.238Z,31.00
2024-04-30T16:03:45.998Z,30.56
2024-04-30T16:06:15.038Z,30.41
2024-04-30T16:08:43.626Z,30.78
2024-04-30T16:11:12.440Z,30.24
2024-04-30T16:13:41.672Z,30.34
2024-04-30T16:16:16.547Z,30.51
2024-04-30T16:18:48.093Z,30.51
2024-04-30T16:21:17.280Z,30.65
2024-04-30T16:23:46.647Z,31.31
2024-04-30T16:26:15.421Z,30.33
2024-04-30T16:28:44.837Z,30.13
2024-04-30T16:31:15.802Z,30.47
2024-04-30T16:33:44.670Z,30.95
2024-04-30T16:36:20.641Z,30.63
2024-04-30T16:38:51.378Z,30.71
2024-04-30T16:41:20.088Z,30.95
2024-04-30T16:43:48.873Z,30.99
2024-04-30T16:46:19.824Z,31.35
2024-04-30T16:48:48.461Z,31.93
2024-04-30T16:51:17.225Z,32.09
2024-04-30T16:53:45.778Z,32.26
2024-04-30T16:56:14.872Z,32.62
2024-04-30T16:58:43.417Z,32.69
2024-04-30T17:01:12.122Z,33.35
2024-04-30T17:03:41.644Z,33.37
2024-04-30T17:06:10.943Z,33.74
2024-04-30T17:08:40.091Z,33.90
2024-04-30T17:11:09.738Z,34.35
2024-04-30T17:13:41.906Z,34.66
2024-04-30T17:16:17.956Z,35.02
2024-04-30T17:18:46.841Z,35.14
2024-04-30T17:21:18.460Z,35.47
2024-04-30T17:23:47.064Z,35.56
2024-04-30T17:26:26.258Z,35.59
2024-04-30T17:28:56.024Z,35.84
2024-04-30T17:31:25.275Z,35.90
2024-04-30T17:33:56.093Z,36.12
2024-04-30T17:36:25.195Z,36.33
2024-04-30T17:38:54.039Z,36.51
2024-04-30T17:41:26.644Z,36.69
2024-04-30T17:43:55.381Z,36.76
2024-04-30T17:46:26.981Z,37.07
2024-04-30T17:48:56.867Z,37.39
2024-04-30T17:51:26.009Z,37.93
2024-04-30T17:53:54.828Z,38.27
2024-04-30T17:56:23.468Z,38.52
2024-04-30T17:58:52.444Z,39.29
2024-04-30T18:01:21.165Z,40.13
2024-04-30T18:03:53.836Z,40.80
2024-04-30T18:06:23.185Z,42.26
2024-04-30T18:08:56.900Z,43.10
2024-04-30T18:11:26.288Z,43.79
2024-04-30T18:13:56.143Z,44.31
2024-04-30T18:16:25.948Z,44.64
2024-04-30T18:18:55.321Z,44.86
2024-04-30T18:21:26.868Z,44.77
2024-04-30T18:23:55.614Z,45.33
2024-04-30T18:26:24.135Z,45.72
2024-04-30T18:28:54.508Z,46.89
2024-04-30T18:31:24.518Z,47.84
2024-04-30T18:33:53.740Z,48.44
2024-04-30T18:36:24.982Z,49.44
2024-04-30T18:38:53.927Z,49.98
2024-04-30T18:41:28.423Z,50.66
2024-04-30T18:44:00.092Z,51.16
2024-04-30T18:46:28.597Z,52.10
2024-04-30T18:48:58.201Z,53.17
2024-04-30T18:51:27.349Z,53.96
2024-04-30T18:53:56.295Z,55.01
2024-04-30T18:56:25.351Z,56.43
2024-04-30T18:58:53.840Z,56.55
2024-04-30T19:01:25.276Z,56.70
2024-04-30T19:03:53.914Z,54.87
2024-04-30T19:06:22.564Z,53.89
2024-04-30T19:08:51.122Z,53.73
2024-04-30T19:11:20.067Z,53.38
2024-04-30T19:13:49.019Z,53.22
2024-04-30T19:16:17.600Z,52.90
2024-04-30T19:18:46.323Z,52.76
2024-04-30T19:21:15.149Z,52.40
2024-04-30T19:23:43.572Z,53.77
2024-04-30T19:26:14.075Z,54.77
2024-04-30T19:28:42.733Z,54.97
2024-04-30T19:31:19.906Z,54.98
2024-04-30T19:33:48.891Z,54.80
2024-04-30T19:36:19.230Z,52.68
2024-04-30T19:38:48.363Z,51.13
2024-04-30T19:41:17.929Z,49.46
2024-04-30T19:43:46.793Z,48.41
2024-04-30T19:46:18.199Z,47.97
2024-04-30T19:48:47.085Z,47.67
2024-04-30T19:51:19.358Z,47.41
2024-04-30T19:53:48.780Z,46.93
2024-04-30T19:56:19.111Z,46.68
2024-04-30T19:58:51.646Z,46.79
2024-04-30T20:01:24.006Z,46.67
2024-04-30T20:03:53.216Z,46.64
2024-04-30T20:06:24.334Z,46.55
2024-04-30T20:08:52.879Z,46.34
2024-04-30T20:11:24.211Z,46.39
2024-04-30T20:13:53.866Z,46.50
2024-04-30T20:16:24.252Z,46.17
2024-04-30T20:18:53.138Z,46.43
2024-04-30T20:21:22.552Z,46.29
2024-04-30T20:23:51.313Z,46.50
2024-04-30T20:26:19.817Z,46.91
2024-04-30T20:28:48.517Z,46.60
2024-04-30T20:31:17.397Z,46.42
2024-04-30T20:33:45.819Z,46.28
2024-04-30T20:36:18.022Z,46.32
2024-04-30T20:38:46.945Z,46.24
2024-04-30T20:41:15.837Z,46.31
2024-04-30T20:43:44.578Z,46.45
2024-04-30T20:46:13.290Z,46.34
2024-04-30T20:48:43.115Z,46.32
2024-04-30T20:51:13.223Z,46.49
2024-04-30T20:53:41.958Z,46.42
2024-04-30T20:56:11.140Z,46.49
2024-04-30T20:58:41.336Z,46.61
2024-04-30T21:01:15.501Z,46.49
2024-04-30T21:03:44.662Z,46.59
2024-04-30T21:06:13.746Z,46.56
2024-04-30T21:08:42.616Z,46.66
2024-04-30T21:11:15.068Z,46.85
2024-04-30T21:13:44.576Z,46.72
2024-04-30T21:16:14.606Z,46.75
2024-04-30T21:18:45.580Z,46.90
2024-04-30T21:21:15.631Z,47.25
2024-04-30T21:23:44.415Z,47.85
2024-04-30T21:26:13.487Z,48.67
2024-04-30T21:28:42.104Z,49.21
2024-04-30T21:31:10.626Z,49.75
2024-04-30T21:33:42.149Z,50.40
2024-04-30T21:36:12.600Z,50.68
2024-04-30T21:38:41.429Z,51.41
2024-04-30T21:41:10.310Z,51.65
2024-04-30T21:43:39.728Z,52.32
2024-04-30T21:46:08.595Z,52.83
2024-04-30T21:48:39.896Z,53.61
2024-04-30T21:51:08.493Z,54.18
2024-04-30T21:53:39.061Z,54.50
2024-04-30T21:56:08.361Z,55.11
2024-04-30T21:58:37.011Z,55.67
2024-04-30T22:01:07.777Z,56.35
2024-04-30T22:03:37.645Z,57.13
2024-04-30T22:06:07.098Z,57.40
2024-04-30T22:08:38.323Z,58.11
2024-04-30T22:11:07.431Z,58.44
2024-04-30T22:13:35.997Z,58.57
2024-04-30T22:16:06.114Z,59.03
2024-04-30T22:18:35.898Z,59.36
2024-04-30T22:21:09.908Z,59.61
2024-04-30T22:23:38.772Z,60.36
2024-04-30T22:26:08.006Z,60.73
2024-04-30T22:28:36.600Z,61.06
2024-04-30T22:31:06.235Z,61.32
2024-04-30T22:33:35.305Z,62.18
2024-04-30T22:36:05.335Z,62.85
2024-04-30T22:38:33.902Z,63.29
2024-04-30T22:41:02.294Z,63.61
2024-04-30T22:43:30.714Z,63.84
2024-04-30T22:46:00.138Z,63.93
2024-04-30T22:48:29.045Z,64.39
2024-04-30T22:50:58.039Z,64.34
2024-04-30T22:53:29.103Z,64.68
2024-04-30T22:55:59.160Z,65.10
2024-04-30T22:58:29.325Z,65.07
2024-04-30T23:00:57.896Z,65.93
2024-04-30T23:03:26.659Z,66.22
2024-04-30T23:05:58.388Z,66.58
2024-04-30T23:08:26.695Z,67.19
2024-04-30T23:10:55.437Z,67.57
2024-04-30T23:13:23.790Z,67.88
2024-04-30T23:15:52.359Z,68.30
2024-04-30T23:18:21.131Z,68.08
2024-04-30T23:20:49.858Z,68.54
2024-04-30T23:23:18.532Z,69.12
2024-04-30T23:25:48.012Z,69.40
2024-04-30T23:28:16.691Z,70.04
2024-04-30T23:30:45.360Z,70.52
2024-04-30T23:33:14.014Z,71.14
2024-04-30T23:35:42.489Z,71.87
2024-04-30T23:38:13.607Z,72.06
2024-04-30T23:40:42.630Z,72.51
2024-04-30T23:43:11.303Z,73.04
2024-04-30T23:45:39.965Z,73.48
2024-04-30T23:48:09.084Z,73.81
2024-04-30T23:50:37.776Z,74.01
2024-04-30T23:53:09.251Z,74.28
2024-04-30T23:55:37.718Z,75.31
2024-04-30T23:58:06.438Z,75.90
